createdAt,value
2023-04-11T00:00:06.609Z,9.40
2023-04-11T00:02:40.134Z,9.10
2023-04-11T00:05:08.844Z,9.00
2023-04-11T00:07:36.705Z,9.57
2023-04-11T00:10:07.195Z,9.50
2023-04-11T00:12:36.482Z,9.07
2023-04-11T00:15:04.988Z,9.87
2023-04-11T00:17:33.701Z,8.87
2023-04-11T00:20:07.614Z,8.27
2023-04-11T00:22:39.074Z,9.00
2023-04-11T00:25:07.508Z,9.00
2023-04-11T00:27:36.754Z,9.10
2023-04-11T00:30:05.771Z,9.10
2023-04-11T00:32:33.601Z,9.07
2023-04-11T00:35:01.804Z,9.40
2023-04-11T00:37:31.875Z,9.47
2023-04-11T00:39:59.689Z,9.80
2023-04-11T00:42:27.536Z,8.20
2023-04-11T00:44:57.374Z,8.00
2023-04-11T00:47:25.710Z,8.20
2023-04-11T00:49:53.465Z,8.37
2023-04-11T00:52:21.847Z,8.30
2023-04-11T00:54:49.644Z,8.23
2023-04-11T00:57:17.406Z,8.63
2023-04-11T00:59:48.149Z,9.20
2023-04-11T01:02:18.222Z,8.90
2023-04-11T01:04:47.260Z,9.10
2023-04-11T01:07:15.296Z,8.93
2023-04-11T01:09:43.325Z,8.50
2023-04-11T01:12:11.926Z,9.13
2023-04-11T01:14:41.187Z,8.27
2023-04-11T01:17:12.969Z,8.33
2023-04-11T01:19:42.608Z,8.67
2023-04-11T01:22:14.837Z,9.10
2023-04-11T01:24:44.404Z,8.50
2023-04-11T01:27:12.248Z,8.23
2023-04-11T01:29:40.161Z,8.97
2023-04-11T01:32:08.391Z,9.10
2023-04-11T01:34:36.945Z,8.20
2023-04-11T01:37:05.210Z,9.30
2023-04-11T01:39:32.980Z,9.13
2023-04-11T01:42:03.683Z,8.57
2023-04-11T01:44:33.476Z,8.90
2023-04-11T01:47:04.760Z,8.50
2023-04-11T01:49:33.789Z,9.03
2023-04-11T01:52:01.553Z,8.80
2023-04-11T01:54:29.494Z,8.27
2023-04-11T01:56:57.562Z,9.40
2023-04-11T01:59:26.907Z,8.50
2023-04-11T02:01:55.083Z,9.27
2023-04-11T02:04:23.287Z,8.60
2023-04-11T02:06:51.121Z,8.30
2023-04-11T02:09:20.617Z,9.23
2023-04-11T02:11:48.835Z,8.43
2023-04-11T02:14:20.286Z,9.53
2023-04-11T02:16:53.053Z,8.93
2023-04-11T02:19:22.273Z,8.43
2023-04-11T02:21:50.485Z,9.10
2023-04-11T02:24:18.505Z,9.47
2023-04-11T02:26:46.712Z,8.60
2023-04-11T02:29:14.477Z,9.57
2023-04-11T02:31:42.802Z,9.20
2023-04-11T02:34:11.962Z,9.00
2023-04-11T02:36:39.838Z,9.90
2023-04-11T02:39:07.765Z,9.07
2023-04-11T02:41:35.570Z,8.57
2023-04-11T02:44:03.362Z,9.03
2023-04-11T02:46:31.395Z,9.27
2023-04-11T02:49:00.142Z,9.57
2023-04-11T02:51:29.927Z,9.90
2023-04-11T02:53:58.682Z,9.50
2023-04-11T02:56:27.109Z,9.70
2023-04-11T02:58:58.119Z,9.87
2023-04-11T03:01:27.530Z,9.20
2023-04-11T03:03:56.597Z,9.00
2023-04-11T03:06:33.423Z,10.07
2023-04-11T03:09:02.226Z,8.70
2023-04-11T03:11:30.085Z,8.33
2023-04-11T03:13:58.627Z,9.17
2023-04-11T03:16:28.181Z,9.07
2023-04-11T03:18:56.280Z,8.53
2023-04-11T03:21:24.848Z,8.47
2023-04-11T03:23:54.160Z,8.93
2023-04-11T03:26:27.359Z,8.50
2023-04-11T03:28:59.239Z,9.20
2023-04-11T03:31:31.282Z,8.60
2023-04-11T03:33:59.797Z,9.07
2023-04-11T03:36:28.048Z,9.17
2023-04-11T03:38:58.009Z,8.43
2023-04-11T03:41:26.266Z,8.30
2023-04-11T03:43:54.094Z,8.70
2023-04-11T03:46:22.388Z,8.90
2023-04-11T03:48:50.181Z,9.10
2023-04-11T03:51:19.973Z,9.20
2023-04-11T03:54:01.912Z,9.20
2023-04-11T03:56:35.498Z,9.83
2023-04-11T03:59:03.808Z,10.57
2023-04-11T04:01:41.774Z,10.90
2023-04-11T04:04:10.868Z,11.87
2023-04-11T04:06:41.756Z,11.40
2023-04-11T04:09:12.240Z,10.83
2023-04-11T04:11:59.391Z,10.57
2023-04-11T04:14:38.853Z,11.60
2023-04-11T04:17:08.241Z,11.20
2023-04-11T04:19:36.013Z,11.67
2023-04-11T04:22:04.271Z,11.30
2023-04-11T04:24:39.432Z,12.03
2023-04-11T04:27:19.493Z,12.33
2023-04-11T04:29:58.062Z,11.90
2023-04-11T04:32:41.257Z,11.70
2023-04-11T04:35:14.035Z,12.10
2023-04-11T04:37:45.792Z,12.70
2023-04-11T04:40:39.920Z,13.30
2023-04-11T04:43:11.782Z,12.70
2023-04-11T04:46:12.034Z,13.40
2023-04-11T04:48:49.706Z,12.80
2023-04-11T04:51:18.257Z,13.80
2023-04-11T04:53:46.482Z,14.17
2023-04-11T04:56:40.746Z,14.07
2023-04-11T04:59:14.559Z,13.87
2023-04-11T05:01:44.448Z,14.10
2023-04-11T05:04:12.862Z,14.47
2023-04-11T05:06:48.152Z,14.90
2023-04-11T05:09:16.914Z,14.30
2023-04-11T05:11:46.707Z,16.00
2023-04-11T05:14:15.993Z,13.90
2023-04-11T05:16:44.085Z,14.00
2023-04-11T05:19:11.916Z,14.90
2023-04-11T05:21:44.058Z,15.87
2023-04-11T05:24:13.850Z,14.73
2023-04-11T05:26:41.817Z,15.00
2023-04-11T05:29:11.890Z,15.80
2023-04-11T05:31:39.862Z,16.40
2023-04-11T05:34:10.600Z,14.43
2023-04-11T05:36:39.340Z,15.47
2023-04-11T05:39:07.055Z,15.10
2023-04-11T05:41:34.778Z,15.30
2023-04-11T05:44:05.135Z,15.17
2023-04-11T05:46:36.611Z,15.30
2023-04-11T05:49:04.876Z,15.47
2023-04-11T05:51:32.840Z,15.97
2023-04-11T05:54:01.108Z,15.73
2023-04-11T05:56:29.076Z,16.13
2023-04-11T05:58:57.210Z,15.27
2023-04-11T06:01:26.132Z,15.07
2023-04-11T06:03:55.702Z,15.87
2023-04-11T06:06:24.515Z,15.97
2023-04-11T06:08:52.288Z,16.53
2023-04-11T06:11:20.732Z,16.00
2023-04-11T06:13:49.068Z,16.80
2023-04-11T06:16:16.901Z,17.90
2023-04-11T06:18:44.682Z,16.90
2023-04-11T06:21:14.871Z,17.60
2023-04-11T06:23:42.666Z,17.47
2023-04-11T06:26:11.485Z,18.73
2023-04-11T06:28:39.627Z,18.80
2023-04-11T06:31:09.705Z,18.17
2023-04-11T06:33:38.989Z,17.70
2023-04-11T06:36:07.229Z,18.10
2023-04-11T06:38:38.092Z,18.93
2023-04-11T06:41:06.535Z,17.77
2023-04-11T06:43:34.563Z,18.90
2023-04-11T06:46:02.558Z,18.20
2023-04-11T06:48:30.342Z,17.07
2023-04-11T06:50:58.405Z,16.70
2023-04-11T06:53:26.142Z,16.57
2023-04-11T06:55:55.440Z,17.63
2023-04-11T06:58:23.501Z,16.70
2023-04-11T07:00:51.468Z,15.77
2023-04-11T07:03:19.825Z,16.97
2023-04-11T07:05:48.115Z,17.10
2023-04-11T07:08:16.322Z,16.83
2023-04-11T07:10:45.700Z,17.10
2023-04-11T07:13:15.158Z,16.90
2023-04-11T07:15:43.624Z,16.80
2023-04-11T07:18:11.414Z,16.93
2023-04-11T07:20:40.632Z,17.43
2023-04-11T07:23:08.836Z,18.10
2023-04-11T07:25:37.004Z,17.60
2023-04-11T07:28:08.412Z,16.87
2023-04-11T07:30:37.545Z,17.90
2023-04-11T07:33:05.802Z,16.67
2023-04-11T07:35:34.904Z,18.23
2023-04-11T07:38:03.458Z,17.00
2023-04-11T07:40:31.686Z,17.90
2023-04-11T07:43:01.745Z,17.50
2023-04-11T07:45:29.635Z,18.60
2023-04-11T07:47:58.816Z,17.00
2023-04-11T07:50:26.868Z,17.40
2023-04-11T07:52:55.802Z,16.90
2023-04-11T07:55:23.649Z,16.43
2023-04-11T07:57:51.741Z,17.00
2023-04-11T08:00:20.346Z,15.80
2023-04-11T08:02:48.194Z,15.70
2023-04-11T08:05:17.772Z,15.87
2023-04-11T08:07:45.513Z,14.20
2023-04-11T08:10:13.508Z,15.23
2023-04-11T08:12:41.398Z,15.20
2023-04-11T08:15:09.516Z,15.23
2023-04-11T08:17:38.573Z,14.10
2023-04-11T08:20:09.434Z,15.07
2023-04-11T08:22:38.997Z,16.27
2023-04-11T08:25:07.563Z,14.30
2023-04-11T08:27:35.460Z,14.10
2023-04-11T08:30:05.994Z,11.97
2023-04-11T08:32:34.193Z,10.70
2023-04-11T08:35:02.036Z,9.50
2023-04-11T08:37:31.057Z,8.30
2023-04-11T08:40:00.168Z,8.67
2023-04-11T08:42:28.947Z,7.07
2023-04-11T08:44:57.119Z,6.57
2023-04-11T08:47:25.487Z,6.50
2023-04-11T08:49:53.863Z,6.53
2023-04-11T08:52:21.962Z,6.90
2023-04-11T08:54:50.293Z,5.10
2023-04-11T08:57:27.811Z,5.20
2023-04-11T08:59:56.566Z,5.70
2023-04-11T09:02:24.434Z,5.20
2023-04-11T09:04:52.552Z,5.43
2023-04-11T09:07:20.330Z,4.87
2023-04-11T09:09:48.051Z,5.27
2023-04-11T09:12:15.900Z,4.70
2023-04-11T09:14:45.086Z,6.03
2023-04-11T09:17:14.405Z,4.80
2023-04-11T09:19:43.122Z,5.87
2023-04-11T09:22:11.122Z,4.67
2023-04-11T09:24:39.104Z,4.27
2023-04-11T09:27:08.786Z,5.27
2023-04-11T09:29:38.174Z,4.90
2023-04-11T09:32:08.049Z,4.10
2023-04-11T09:34:37.617Z,3.87
2023-04-11T09:37:05.737Z,4.43
2023-04-11T09:39:34.200Z,3.60
2023-04-11T09:42:03.186Z,4.50
2023-04-11T09:44:38.258Z,4.13
2023-04-11T09:47:09.641Z,3.90
2023-04-11T09:49:38.071Z,3.77
2023-04-11T09:52:06.578Z,4.63
2023-04-11T09:54:34.587Z,3.03
2023-04-11T09:57:03.971Z,3.23
2023-04-11T09:59:32.919Z,3.77
2023-04-11T10:02:01.798Z,3.73
2023-04-11T10:04:34.333Z,3.10
2023-04-11T10:07:07.530Z,2.93
2023-04-11T10:09:38.927Z,2.73
2023-04-11T10:12:07.023Z,2.73
2023-04-11T10:14:44.722Z,2.67
2023-04-11T10:17:14.609Z,2.80
2023-04-11T10:19:45.329Z,2.33
2023-04-11T10:22:34.425Z,2.27
2023-04-11T10:25:17.715Z,2.63
2023-04-11T10:27:49.093Z,2.10
2023-04-11T10:30:17.113Z,2.70
2023-04-11T10:32:59.983Z,2.17
2023-04-11T10:35:30.889Z,2.03
2023-04-11T10:37:58.735Z,1.60
2023-04-11T10:40:27.125Z,2.60
2023-04-11T10:42:54.938Z,1.90
2023-04-11T10:45:24.468Z,1.67
2023-04-11T10:48:03.640Z,2.37
2023-04-11T10:50:37.845Z,1.50
2023-04-11T10:53:06.606Z,2.70
2023-04-11T10:55:43.617Z,2.50
2023-04-11T10:58:14.117Z,2.40
2023-04-11T11:01:00.820Z,2.17
2023-04-11T11:03:30.768Z,2.00
2023-04-11T11:06:00.950Z,2.57
2023-04-11T11:08:30.355Z,2.70
2023-04-11T11:11:01.063Z,2.30
2023-04-11T11:13:39.463Z,2.50
2023-04-11T11:16:07.846Z,2.60
2023-04-11T11:18:35.923Z,2.63
2023-04-11T11:21:07.401Z,2.73
2023-04-11T11:23:37.488Z,2.20
2023-04-11T11:26:06.647Z,2.47
2023-04-11T11:28:34.350Z,2.10
2023-04-11T11:31:04.040Z,1.97
2023-04-11T11:33:32.568Z,2.40
2023-04-11T11:36:01.561Z,2.10
2023-04-11T11:38:31.375Z,2.37
2023-04-11T11:41:00.037Z,2.20
2023-04-11T11:43:28.363Z,2.27
2023-04-11T11:46:09.792Z,2.23
2023-04-11T11:48:38.396Z,2.10
2023-04-11T11:51:07.074Z,2.07
2023-04-11T11:53:36.858Z,2.00
2023-04-11T11:56:14.832Z,1.70
2023-04-11T11:58:47.633Z,2.60
2023-04-11T12:01:18.275Z,2.10
2023-04-11T12:03:48.421Z,1.77
2023-04-11T12:06:17.225Z,2.00
2023-04-11T12:08:50.344Z,1.53
2023-04-11T12:11:18.646Z,1.90
2023-04-11T12:13:46.701Z,2.40
2023-04-11T12:16:16.158Z,2.10
2023-04-11T12:18:45.199Z,1.93
2023-04-11T12:21:13.360Z,1.87
2023-04-11T12:23:41.118Z,1.70
2023-04-11T12:26:10.406Z,1.80
2023-04-11T12:28:38.317Z,1.97
2023-04-11T12:31:06.346Z,2.00
2023-04-11T12:33:34.139Z,1.40
2023-04-11T12:36:02.806Z,1.63
2023-04-11T12:38:30.565Z,1.80
2023-04-11T12:41:19.893Z,1.57
2023-04-11T12:43:48.078Z,1.73
2023-04-11T12:46:17.327Z,2.00
2023-04-11T12:48:45.598Z,1.73
2023-04-11T12:51:13.544Z,2.40
2023-04-11T12:53:41.358Z,2.00
2023-04-11T12:56:09.648Z,1.73
2023-04-11T12:58:38.070Z,2.17
2023-04-11T13:01:07.607Z,1.87
2023-04-11T13:03:38.449Z,2.30
2023-04-11T13:06:06.547Z,2.33
2023-04-11T13:08:34.297Z,1.80
2023-04-11T13:11:02.301Z,2.40
2023-04-11T13:13:30.081Z,2.60
2023-04-11T13:16:01.302Z,2.40
2023-04-11T13:18:30.609Z,2.03
2023-04-11T13:20:58.504Z,2.00
2023-04-11T13:23:26.825Z,1.63
2023-04-11T13:25:55.269Z,1.30
2023-04-11T13:28:22.991Z,1.00
2023-04-11T13:30:50.694Z,1.00
2023-04-11T13:33:18.783Z,1.30
2023-04-11T13:35:47.889Z,1.60
2023-04-11T13:38:16.174Z,1.80
2023-04-11T13:40:44.119Z,1.60
2023-04-11T13:43:11.973Z,2.10
2023-04-11T13:45:40.297Z,2.33
2023-04-11T13:48:08.536Z,2.67
2023-04-11T13:50:36.336Z,2.80
2023-04-11T13:53:05.716Z,2.37
2023-04-11T13:55:33.553Z,2.50
2023-04-11T13:58:01.390Z,1.90
2023-04-11T14:00:29.489Z,2.40
2023-04-11T14:02:57.378Z,2.93
2023-04-11T14:05:26.979Z,1.97
2023-04-11T14:07:54.930Z,2.37
2023-04-11T14:10:24.395Z,2.77
2023-04-11T14:12:52.248Z,2.60
2023-04-11T14:15:21.934Z,2.83
2023-04-11T14:17:49.951Z,1.70
2023-04-11T14:20:17.806Z,1.67
2023-04-11T14:22:46.179Z,1.67
2023-04-11T14:25:16.046Z,1.67
2023-04-11T14:27:45.648Z,2.07
2023-04-11T14:30:13.917Z,2.00
2023-04-11T14:32:41.985Z,1.80
2023-04-11T14:35:10.051Z,2.20
2023-04-11T14:37:38.185Z,1.80
2023-04-11T14:40:08.216Z,1.87
2023-04-11T14:42:36.009Z,1.80
2023-04-11T14:45:05.787Z,3.10
2023-04-11T14:47:33.977Z,3.00
2023-04-11T14:50:01.813Z,2.53
2023-04-11T14:52:29.753Z,2.40
2023-04-11T14:54:57.711Z,3.00
2023-04-11T14:57:25.515Z,3.17
2023-04-11T14:59:53.247Z,3.07
2023-04-11T15:02:22.797Z,3.23
2023-04-11T15:04:53.479Z,3.20
2023-04-11T15:07:22.414Z,3.23
2023-04-11T15:09:50.128Z,3.17
2023-04-11T15:12:18.192Z,3.40
2023-04-11T15:14:46.437Z,3.80
2023-04-11T15:17:14.226Z,3.30
2023-04-11T15:19:43.327Z,2.90
2023-04-11T15:22:11.666Z,3.10
2023-04-11T15:24:39.404Z,2.70
2023-04-11T15:27:07.428Z,2.43
2023-04-11T15:29:36.653Z,5.13
2023-04-11T15:32:04.490Z,2.50
2023-04-11T15:34:32.220Z,3.20
2023-04-11T15:37:01.605Z,2.70
2023-04-11T15:39:29.342Z,3.47
2023-04-11T15:41:57.609Z,3.20
2023-04-11T15:44:25.386Z,2.93
2023-04-11T15:46:53.202Z,1.90
2023-04-11T15:49:21.078Z,2.70
2023-04-11T15:51:49.389Z,2.80
2023-04-11T15:54:18.508Z,1.80
2023-04-11T15:56:46.328Z,1.50
2023-04-11T15:59:15.946Z,2.37
2023-04-11T16:01:44.719Z,1.60
2023-04-11T16:04:12.621Z,1.57
2023-04-11T16:06:40.907Z,2.00
2023-04-11T16:09:08.717Z,1.50
2023-04-11T16:11:40.104Z,2.10
2023-04-11T16:14:08.201Z,1.77
2023-04-11T16:16:36.158Z,2.17
2023-04-11T16:19:04.252Z,2.10
2023-04-11T16:21:32.338Z,2.30
2023-04-11T16:24:00.180Z,2.93
2023-04-11T16:26:28.065Z,1.97
2023-04-11T16:28:57.554Z,2.20
2023-04-11T16:31:25.488Z,2.83
2023-04-11T16:33:55.101Z,3.80
2023-04-11T16:36:24.669Z,3.70
2023-04-11T16:38:52.464Z,2.60
2023-04-11T16:41:20.683Z,2.87
2023-04-11T16:43:48.825Z,3.30
2023-04-11T16:46:17.954Z,2.83
2023-04-11T16:48:45.733Z,2.90
2023-04-11T16:51:13.826Z,2.80
2023-04-11T16:53:41.862Z,2.40
2023-04-11T16:56:10.518Z,2.60
2023-04-11T16:58:38.872Z,2.80
2023-04-11T17:01:07.048Z,3.27
2023-04-11T17:03:38.771Z,3.63
2023-04-11T17:06:13.467Z,4.10
2023-04-11T17:09:04.388Z,3.27
2023-04-11T17:11:36.176Z,3.27
2023-04-11T17:14:05.202Z,3.07
2023-04-11T17:16:33.011Z,3.30
2023-04-11T17:19:02.499Z,3.47
2023-04-11T17:21:31.914Z,3.50
2023-04-11T17:24:00.472Z,3.27
2023-04-11T17:26:28.515Z,3.77
2023-04-11T17:28:57.048Z,3.50
2023-04-11T17:31:27.544Z,3.10
2023-04-11T17:33:55.583Z,2.90
2023-04-11T17:36:25.341Z,3.50
2023-04-11T17:38:54.701Z,3.43
2023-04-11T17:41:22.782Z,3.03
2023-04-11T17:43:50.892Z,3.30
2023-04-11T17:46:20.227Z,3.27
2023-04-11T17:48:48.271Z,2.80
2023-04-11T17:51:16.326Z,3.23
2023-04-11T17:53:45.648Z,3.50
2023-04-11T17:56:14.427Z,4.20
2023-04-11T17:58:45.107Z,3.77
2023-04-11T18:01:13.050Z,3.30
2023-04-11T18:03:41.103Z,4.30
2023-04-11T18:06:09.251Z,4.13
2023-04-11T18:11:12.744Z,3.30
2023-04-11T18:13:40.502Z,3.80
2023-04-11T18:16:08.366Z,3.20
2023-04-11T18:18:36.849Z,3.87
2023-04-11T18:21:07.072Z,3.27
2023-04-11T18:23:35.821Z,3.60
2023-04-11T18:26:03.763Z,3.30
2023-04-11T18:28:32.961Z,3.67
2023-04-11T18:31:01.575Z,3.40
2023-04-11T18:33:29.845Z,3.27
2023-04-11T18:35:57.677Z,3.10
2023-04-11T18:38:25.729Z,4.10
2023-04-11T18:40:56.171Z,3.00
2023-04-11T18:43:24.906Z,3.60
2023-04-11T18:45:54.304Z,3.57
2023-04-11T18:48:22.121Z,3.00
2023-04-11T18:50:58.001Z,3.07
2023-04-11T18:53:28.228Z,3.60
2023-04-11T18:55:56.158Z,4.17
2023-04-11T18:58:26.016Z,4.00
2023-04-11T19:00:55.541Z,2.80
2023-04-11T19:03:24.066Z,3.50
2023-04-11T19:05:52.977Z,2.67
2023-04-11T19:08:21.288Z,3.10
2023-04-11T19:10:49.215Z,3.30
2023-04-11T19:13:17.014Z,3.70
2023-04-11T19:15:46.389Z,3.40
2023-04-11T19:18:15.970Z,4.03
2023-04-11T19:20:44.006Z,3.67
2023-04-11T19:23:11.705Z,4.40
2023-04-11T19:25:40.784Z,4.27
2023-04-11T19:28:08.540Z,4.60
2023-04-11T19:30:36.838Z,3.80
2023-04-11T19:33:05.281Z,4.03
2023-04-11T19:35:34.644Z,3.20
2023-04-11T19:38:05.932Z,3.33
2023-04-11T19:40:35.040Z,3.70
2023-04-11T19:43:03.484Z,3.23
2023-04-11T19:45:32.424Z,4.13
2023-04-11T19:48:00.573Z,5.03
2023-04-11T19:50:28.481Z,4.83
2023-04-11T19:52:57.997Z,3.40
2023-04-11T19:55:27.393Z,4.53
2023-04-11T19:57:55.325Z,4.90
2023-04-11T20:00:23.515Z,3.10
2023-04-11T20:02:51.380Z,3.90
2023-04-11T20:05:21.607Z,3.10
2023-04-11T20:07:49.504Z,4.80
2023-04-11T20:10:18.733Z,3.23
2023-04-11T20:12:46.756Z,4.37
2023-04-11T20:15:15.002Z,5.00
2023-04-11T20:17:45.226Z,5.60
2023-04-11T20:20:15.914Z,3.77
2023-04-11T20:22:45.195Z,4.67
2023-04-11T20:25:13.336Z,4.43
2023-04-11T20:27:43.424Z,4.20
2023-04-11T20:30:12.141Z,3.40
2023-04-11T20:32:40.467Z,4.60
2023-04-11T20:35:10.252Z,4.73
2023-04-11T20:37:39.891Z,3.93
2023-04-11T20:40:10.362Z,3.50
2023-04-11T20:42:39.978Z,4.70
2023-04-11T20:45:10.970Z,5.27
2023-04-11T20:47:39.009Z,3.77
2023-04-11T20:50:07.335Z,3.10
2023-04-11T20:52:35.456Z,4.40
2023-04-11T20:55:03.655Z,3.37
2023-04-11T20:57:33.576Z,5.00
2023-04-11T21:00:02.233Z,8.50
2023-04-11T21:02:32.436Z,4.97
2023-04-11T21:05:00.401Z,3.67
2023-04-11T21:07:28.301Z,3.03
2023-04-11T21:09:56.794Z,3.03
2023-04-11T21:12:24.601Z,3.70
2023-04-11T21:14:52.814Z,2.93
2023-04-11T21:17:21.486Z,3.90
2023-04-11T21:19:50.844Z,3.40
2023-04-11T21:22:19.431Z,3.37
2023-04-11T21:24:47.162Z,2.60
2023-04-11T21:27:14.924Z,5.83
2023-04-11T21:29:42.832Z,6.13
2023-04-11T21:32:10.762Z,3.93
2023-04-11T21:34:38.713Z,3.13
2023-04-11T21:37:08.244Z,5.53
2023-04-11T21:39:36.065Z,3.63
2023-04-11T21:42:03.845Z,3.47
2023-04-11T21:44:31.730Z,3.30
2023-04-11T21:46:59.675Z,3.87
2023-04-11T21:49:27.524Z,3.13
2023-04-11T21:51:57.558Z,3.23
2023-04-11T21:54:26.755Z,5.87
2023-04-11T21:56:54.657Z,4.43
2023-04-11T21:59:23.311Z,3.60
2023-04-11T22:01:51.395Z,5.10
2023-04-11T22:04:19.712Z,3.93
2023-04-11T22:06:47.538Z,3.63
2023-04-11T22:09:15.425Z,4.20
2023-04-11T22:11:44.709Z,3.70
2023-04-11T22:14:16.192Z,4.00
2023-04-11T22:16:48.818Z,3.50
2023-04-11T22:19:17.860Z,3.90
2023-04-11T22:21:50.494Z,3.10
2023-04-11T22:24:18.781Z,4.00
2023-04-11T22:26:48.946Z,4.70
2023-04-11T22:29:18.329Z,4.40
2023-04-11T22:31:47.587Z,3.30
2023-04-11T22:34:16.350Z,3.87
2023-04-11T22:36:44.142Z,3.43
2023-04-11T22:39:12.184Z,3.40
2023-04-11T22:41:39.809Z,3.90
2023-04-11T22:44:09.255Z,4.80
2023-04-11T22:46:38.458Z,4.70
2023-04-11T22:49:06.738Z,4.23
2023-04-11T22:51:34.672Z,5.60
2023-04-11T22:54:02.563Z,4.67
2023-04-11T22:56:30.403Z,4.33
2023-04-11T22:58:58.700Z,4.37
2023-04-11T23:01:28.266Z,4.80
2023-04-11T23:03:56.414Z,4.80
2023-04-11T23:06:24.984Z,4.90
2023-04-11T23:08:53.900Z,4.30
2023-04-11T23:11:21.866Z,4.10
2023-04-11T23:13:49.923Z,4.90
2023-04-11T23:16:18.250Z,5.03
2023-04-11T23:18:47.360Z,4.27
2023-04-11T23:21:15.610Z,4.20
2023-04-11T23:23:43.914Z,4.50
2023-04-11T23:26:18.097Z,3.67
2023-04-11T23:28:45.970Z,4.23
2023-04-11T23:31:13.843Z,4.77
2023-04-11T23:33:41.703Z,4.97
2023-04-11T23:36:11.939Z,6.00
2023-04-11T23:38:40.114Z,4.40
2023-04-11T23:41:08.194Z,4.00
2023-04-11T23:43:36.778Z,4.60
2023-04-11T23:46:04.536Z,4.57
2023-04-11T23:48:32.553Z,4.30
2023-04-11T23:51:00.476Z,4.57
2023-04-11T23:53:33.686Z,4.27
2023-04-11T23:56:02.175Z,3.90
2023-04-11T23:58:29.897Z,4.00
